Garrison, Minnesota
Current Conditions -  °F | °C
As of 7:53 AM on Saturday 22 Nov 2014 (Local Time) from KBRD Reporting Station
Haze Haze  
Wind Chill: 14°   Ceiling: Unl
Heat Index: 22°   Visibility: 2.5mi
Dew Point: 22°   Wind: 6mph
Humidity: 100%   Direction: 210°SSW
Pressure: 29.69"   Gusts: NA
Location:  46.29°N, 93.83°W
Report Text: KBRD 221353Z AUTO 21005KT 2 1/2SM BR CLR M06/M06 A2969 RMK AO2 SLP072 T10561056
Loading
Personal Weather Stations






























Interactive Weather Map New forecast layout! Learn more

10-Day Weather Forecast

Advertisements
Track Severe Weather on mobile